Terminal Aerodrome Forecast
Issued by NWS Grand Rapids, MI

Home | Current Version | Previous Version | Text Only | Print | Product List | Glossary On
Versions: 1 2 3 4 5 6 7 8 9 10 11 12 13 14 15 16 17 18 19 20
371
FTUS43 KGRR 041504 AAD
TAFGRR
TAF AMD
KGRR 041504Z 0415/0512 35012G19KT 3SM -RA BR OVC009
      TEMPO 0415/0419 1 1/2SM RA BR
     FM050600 35010KT P6SM OVC015
     FM050800 35010KT P6SM OVC025
     FM050900 36010KT P6SM BKN050=

USA.gov is the U.S. government's official web portal to all federal, state and local government web resources and services.